createdAt,value
2023-02-11T04:05:09.698Z,23.45
2023-02-11T04:07:37.395Z,25.77
2023-02-11T04:10:06.236Z,26.77
2023-02-11T04:12:33.986Z,26.23
2023-02-11T04:15:01.623Z,25.57
2023-02-11T04:17:29.064Z,24.47
2023-02-11T04:19:56.976Z,25.05
2023-02-11T04:22:24.714Z,23.32
2023-02-11T04:24:52.114Z,23.00
2023-02-11T04:27:19.996Z,22.90
2023-02-11T04:29:47.915Z,24.07
2023-02-11T04:32:16.047Z,24.50
2023-02-11T04:34:44.068Z,23.50
2023-02-11T04:37:11.912Z,22.80
2023-02-11T04:39:39.787Z,25.68
2023-02-11T04:42:07.644Z,25.45
2023-02-11T04:44:35.276Z,25.82
2023-02-11T04:47:03.445Z,28.30
2023-02-11T04:49:31.305Z,25.15
2023-02-11T04:51:59.019Z,23.92
2023-02-11T04:54:26.996Z,24.75
2023-02-11T04:56:54.601Z,32.30
2023-02-11T04:59:22.266Z,31.45
2023-02-11T05:01:50.134Z,33.98
2023-02-11T05:04:18.748Z,33.88
2023-02-11T05:06:46.414Z,34.13
2023-02-11T05:09:14.209Z,34.03
2023-02-11T05:11:42.516Z,31.30
2023-02-11T05:14:10.181Z,30.97
2023-02-11T05:16:38.120Z,28.77
2023-02-11T05:19:05.612Z,27.60
2023-02-11T05:21:33.560Z,26.10
2023-02-11T05:24:01.303Z,26.48
2023-02-11T05:26:29.270Z,34.18
2023-02-11T05:28:57.170Z,31.82
2023-02-11T05:31:25.017Z,29.63
2023-02-11T05:33:53.589Z,27.50
2023-02-11T05:36:21.649Z,25.75
2023-02-11T05:38:50.374Z,26.90
2023-02-11T05:41:17.814Z,25.65
2023-02-11T05:43:53.690Z,25.37
2023-02-11T05:46:21.394Z,28.12
2023-02-11T05:48:49.329Z,31.00
2023-02-11T05:51:17.196Z,39.67
2023-02-11T05:53:44.869Z,37.40
2023-02-11T05:56:14.147Z,41.63
2023-02-11T05:58:42.255Z,36.23
2023-02-11T06:01:09.842Z,27.55
2023-02-11T06:03:37.673Z,26.23
2023-02-11T06:06:12.520Z,24.80
2023-02-11T06:08:40.244Z,23.87
2023-02-11T06:11:08.221Z,27.58
2023-02-11T06:13:36.346Z,26.65
2023-02-11T06:16:04.740Z,24.65
2023-02-11T06:18:33.232Z,24.57
2023-02-11T06:21:01.442Z,26.23
2023-02-11T06:23:30.443Z,27.87
2023-02-11T06:26:03.071Z,25.97
2023-02-11T06:28:31.080Z,28.47
2023-02-11T06:31:07.194Z,29.10
2023-02-11T06:33:35.568Z,31.10
2023-02-11T06:36:04.998Z,32.20
2023-02-11T06:38:32.856Z,31.77
2023-02-11T06:41:00.505Z,30.48
2023-02-11T06:43:28.252Z,29.67
2023-02-11T06:45:56.163Z,31.52
2023-02-11T06:48:24.145Z,33.05
2023-02-11T06:50:51.739Z,29.87
2023-02-11T06:53:19.444Z,29.10
2023-02-11T06:55:46.925Z,33.92
2023-02-11T06:58:15.203Z,31.75
2023-02-11T07:00:42.818Z,31.57
2023-02-11T07:03:10.499Z,29.35
2023-02-11T07:05:38.321Z,32.40
2023-02-11T07:08:05.984Z,32.93
2023-02-11T07:10:34.148Z,35.00
2023-02-11T07:13:02.060Z,36.85
2023-02-11T07:15:29.809Z,34.13
2023-02-11T07:17:57.761Z,30.35
2023-02-11T07:20:26.398Z,32.05
2023-02-11T07:22:54.504Z,29.45
2023-02-11T07:25:22.524Z,33.55
2023-02-11T07:27:50.398Z,35.45
2023-02-11T07:30:18.164Z,34.05
2023-02-11T07:32:46.145Z,33.78
2023-02-11T07:35:14.433Z,35.80
2023-02-11T07:37:42.264Z,35.95
2023-02-11T07:40:11.011Z,36.53
2023-02-11T07:42:40.861Z,33.78
2023-02-11T07:45:09.189Z,34.38
2023-02-11T07:47:37.970Z,32.70
2023-02-11T07:50:06.415Z,35.78
2023-02-11T07:52:33.966Z,37.17
2023-02-11T07:55:04.680Z,35.58
2023-02-11T07:57:31.800Z,38.35
2023-02-11T08:00:01.443Z,37.50
2023-02-11T08:02:30.959Z,35.55
2023-02-11T08:04:58.797Z,35.78
2023-02-11T08:07:28.148Z,35.55
2023-02-11T08:09:56.037Z,36.45
2023-02-11T08:12:23.870Z,42.55
2023-02-11T08:14:51.914Z,43.28
2023-02-11T08:17:19.673Z,34.63
2023-02-11T08:19:47.600Z,36.38
2023-02-11T08:22:15.388Z,31.02
2023-02-11T08:24:43.130Z,32.23
2023-02-11T08:27:10.673Z,33.98
2023-02-11T08:29:38.358Z,30.12
2023-02-11T08:32:06.172Z,29.32
2023-02-11T08:34:33.725Z,28.77
2023-02-11T08:37:01.407Z,24.87
2023-02-11T08:39:29.052Z,28.98
2023-02-11T08:41:56.793Z,28.52
2023-02-11T08:44:24.649Z,28.75
2023-02-11T08:46:52.737Z,29.67
2023-02-11T08:49:28.616Z,28.42
2023-02-11T08:52:03.866Z,27.50
2023-02-11T08:54:40.603Z,26.82
2023-02-11T08:57:15.583Z,26.55
2023-02-11T09:02:29.439Z,25.30
2023-02-11T09:04:57.354Z,25.65
2023-02-11T09:07:25.030Z,26.05
2023-02-11T09:09:52.974Z,27.00
2023-02-11T09:12:20.686Z,25.37
2023-02-11T09:14:48.228Z,28.07
2023-02-11T09:17:16.060Z,27.87
2023-02-11T09:19:43.546Z,27.60
2023-02-11T09:22:11.138Z,26.60
2023-02-11T09:24:39.086Z,24.18
2023-02-11T09:27:06.998Z,24.40
2023-02-11T09:29:35.034Z,27.13
2023-02-11T09:32:02.794Z,26.62
2023-02-11T09:34:32.405Z,26.50
2023-02-11T09:37:00.013Z,33.50
2023-02-11T09:39:28.798Z,37.17
2023-02-11T09:42:06.971Z,30.40
2023-02-11T09:44:37.278Z,27.77
2023-02-11T09:47:21.599Z,29.45
2023-02-11T09:49:54.325Z,29.75
2023-02-11T09:52:48.923Z,30.20
2023-02-11T09:55:42.001Z,26.12
2023-02-11T09:58:16.666Z,24.40
2023-02-11T10:01:09.268Z,25.82
2023-02-11T10:04:19.909Z,26.50
2023-02-11T10:06:57.945Z,27.02
2023-02-11T10:09:53.659Z,25.77
2023-02-11T10:12:54.570Z,24.95
2023-02-11T10:15:33.683Z,31.23
2023-02-11T10:18:12.758Z,31.62
2023-02-11T10:21:08.453Z,30.12
2023-02-11T10:23:42.937Z,38.70
2023-02-11T10:26:17.205Z,36.20
2023-02-11T10:28:49.605Z,31.20
2023-02-11T10:31:38.016Z,36.30
2023-02-11T10:34:10.071Z,31.55
2023-02-11T10:36:44.649Z,27.60
2023-02-11T10:39:22.570Z,22.82
2023-02-11T10:42:07.156Z,23.77
2023-02-11T10:45:00.116Z,22.77
2023-02-11T10:47:32.971Z,23.73
2023-02-11T10:50:02.531Z,24.03
2023-02-11T10:52:31.099Z,23.02
2023-02-11T10:55:06.891Z,21.42
2023-02-11T10:57:45.459Z,20.90
2023-02-11T11:00:43.073Z,20.32
2023-02-11T11:03:23.881Z,20.80
2023-02-11T11:06:01.870Z,21.93
2023-02-11T11:08:50.997Z,20.17
2023-02-11T11:11:22.950Z,22.05
2023-02-11T11:13:58.631Z,21.25
2023-02-11T11:16:34.113Z,20.75
2023-02-11T11:19:13.322Z,20.62
2023-02-11T11:21:50.616Z,19.77
2023-02-11T11:24:29.164Z,21.55
2023-02-11T11:27:02.522Z,20.88
2023-02-11T11:29:53.324Z,20.15
2023-02-11T11:32:25.627Z,21.23
2023-02-11T11:34:58.428Z,20.62
2023-02-11T11:37:33.024Z,19.75
2023-02-11T11:40:24.167Z,27.00
2023-02-11T11:43:18.993Z,20.00
2023-02-11T11:45:59.467Z,20.52
2023-02-11T11:48:32.621Z,19.30
2023-02-11T11:51:04.512Z,20.70
2023-02-11T11:53:43.443Z,19.62
2023-02-11T11:56:19.896Z,18.35
2023-02-11T11:58:48.968Z,20.52
2023-02-11T12:01:49.455Z,20.15
2023-02-11T12:04:41.233Z,21.85
2023-02-11T12:07:31.845Z,20.00
2023-02-11T12:10:23.273Z,20.12
2023-02-11T12:13:33.171Z,20.12
2023-02-11T12:16:18.272Z,19.25
2023-02-11T12:19:24.034Z,55.52
2023-02-11T12:22:06.312Z,33.00
2023-02-11T12:24:51.590Z,27.73
2023-02-11T12:27:36.441Z,44.67
2023-02-11T12:30:29.379Z,23.22
2023-02-11T12:33:17.652Z,21.80
2023-02-11T12:36:41.249Z,19.55
2023-02-11T12:39:35.512Z,20.20
2023-02-11T12:42:43.792Z,20.17
2023-02-11T12:45:32.015Z,20.20
2023-02-11T12:48:28.058Z,20.52
2023-02-11T12:51:28.009Z,19.02
2023-02-11T12:54:19.226Z,19.55
2023-02-11T12:56:52.784Z,16.35
2023-02-11T13:01:56.919Z,19.57
2023-02-11T13:04:41.636Z,21.15
2023-02-11T13:07:30.634Z,24.85
2023-02-11T13:10:09.726Z,23.05
2023-02-11T13:12:56.732Z,21.68
2023-02-11T13:15:25.475Z,20.32
2023-02-11T13:18:26.201Z,21.02
2023-02-11T13:21:17.243Z,21.80
2023-02-11T13:24:13.154Z,21.57
2023-02-11T13:27:02.751Z,21.70
2023-02-11T13:30:12.894Z,20.00
2023-02-11T13:33:01.330Z,22.73
2023-02-11T13:35:39.386Z,37.42
2023-02-11T13:38:18.647Z,28.67
2023-02-11T13:41:07.543Z,25.40
2023-02-11T13:43:36.824Z,32.23
2023-02-11T13:46:09.576Z,30.82
2023-02-11T13:48:48.376Z,32.90
2023-02-11T13:51:20.773Z,59.85
2023-02-11T13:53:59.090Z,30.57
2023-02-11T13:56:37.193Z,24.02
2023-02-11T13:59:30.084Z,33.80
2023-02-11T14:02:54.097Z,47.43
2023-02-11T14:05:47.681Z,28.50
2023-02-11T14:08:43.017Z,30.23
2023-02-11T14:11:41.162Z,22.82
2023-02-11T14:14:34.358Z,32.33
2023-02-11T14:17:13.549Z,43.52
2023-02-11T14:19:46.944Z,23.38
2023-02-11T14:22:46.663Z,22.37
2023-02-11T14:25:24.225Z,23.73
2023-02-11T14:28:12.996Z,23.25
2023-02-11T14:30:55.321Z,23.10
2023-02-11T14:33:50.112Z,22.95
2023-02-11T14:36:32.337Z,22.20
2023-02-11T14:39:30.963Z,24.05
2023-02-11T14:42:01.512Z,27.17
2023-02-11T14:44:32.866Z,28.30
2023-02-11T14:47:00.743Z,28.87
2023-02-11T14:49:35.647Z,32.90
2023-02-11T14:52:31.900Z,28.65
2023-02-11T14:55:08.453Z,28.12
2023-02-11T14:57:37.381Z,32.30
2023-02-11T15:00:16.492Z,28.65
2023-02-11T15:02:44.832Z,28.17
2023-02-11T15:05:26.302Z,31.02
2023-02-11T15:08:01.374Z,27.02
2023-02-11T15:10:40.608Z,24.98
2023-02-11T15:13:08.943Z,24.63
2023-02-11T15:15:40.392Z,27.73
2023-02-11T15:18:09.809Z,28.20
2023-02-11T15:20:37.509Z,26.82
2023-02-11T15:23:12.259Z,24.40
2023-02-11T15:25:46.251Z,23.42
2023-02-11T15:28:24.817Z,24.60
2023-02-11T15:31:02.705Z,26.45
2023-02-11T15:33:32.540Z,26.52
2023-02-11T15:36:02.320Z,31.50
2023-02-11T15:38:30.910Z,29.30
2023-02-11T15:41:02.484Z,38.40
2023-02-11T15:43:50.738Z,36.25
2023-02-11T15:46:21.974Z,35.63
2023-02-11T15:48:53.983Z,32.90
2023-02-11T15:51:28.943Z,31.30
2023-02-11T15:54:00.867Z,38.55
2023-02-11T15:56:42.881Z,36.13
2023-02-11T15:59:30.769Z,35.17
2023-02-11T16:02:07.462Z,34.60
2023-02-11T16:04:36.393Z,35.05
2023-02-11T16:07:04.747Z,35.20
2023-02-11T16:09:36.795Z,36.75
2023-02-11T16:12:21.799Z,35.90
2023-02-11T16:14:49.862Z,35.70
2023-02-11T16:17:21.980Z,36.50
2023-02-11T16:19:52.003Z,34.23
2023-02-11T16:22:29.753Z,40.10
2023-02-11T16:24:59.756Z,30.08
2023-02-11T16:27:40.075Z,28.55
2023-02-11T16:30:34.296Z,34.23
2023-02-11T16:33:02.505Z,41.83
2023-02-11T16:35:30.304Z,38.38
2023-02-11T16:37:58.008Z,34.40
2023-02-11T16:40:25.665Z,36.00
2023-02-11T16:42:53.165Z,35.78
2023-02-11T16:45:20.844Z,33.33
2023-02-11T16:47:48.410Z,34.88
2023-02-11T16:50:22.659Z,31.73
2023-02-11T16:52:51.998Z,32.90
2023-02-11T16:55:22.041Z,34.23
2023-02-11T16:57:49.408Z,34.67
2023-02-11T17:00:18.440Z,37.90
2023-02-11T17:02:46.438Z,38.80
2023-02-11T17:05:22.499Z,39.63
2023-02-11T17:07:50.323Z,37.83
2023-02-11T17:10:23.045Z,49.30
2023-02-11T17:12:52.922Z,44.70
2023-02-11T17:15:20.658Z,51.35
2023-02-11T17:17:48.455Z,59.20
2023-02-11T17:20:16.881Z,55.58
2023-02-11T17:22:44.580Z,41.75
2023-02-11T17:25:12.346Z,40.33
2023-02-11T17:27:40.106Z,42.80
2023-02-11T17:30:08.852Z,49.67
2023-02-11T17:32:37.582Z,46.30
2023-02-11T17:35:06.700Z,46.50
2023-02-11T17:37:34.466Z,41.42
2023-02-11T17:40:02.474Z,34.33
2023-02-11T17:42:30.832Z,31.10
2023-02-11T17:44:58.395Z,33.48
2023-02-11T17:47:26.103Z,32.00
2023-02-11T17:49:53.474Z,37.88
2023-02-11T17:52:21.195Z,38.13
2023-02-11T17:54:48.786Z,36.68
2023-02-11T17:57:18.674Z,35.28
2023-02-11T17:59:46.541Z,35.60
2023-02-11T18:02:14.127Z,38.42
2023-02-11T18:04:41.787Z,40.33
2023-02-11T18:07:09.312Z,37.85
2023-02-11T18:09:39.910Z,53.10
2023-02-11T18:12:10.315Z,62.70
2023-02-11T18:14:39.930Z,52.83
2023-02-11T18:17:07.726Z,42.45
2023-02-11T18:19:37.070Z,44.25
2023-02-11T18:22:04.648Z,44.33
2023-02-11T18:24:32.357Z,40.35
2023-02-11T18:27:00.156Z,39.25
2023-02-11T18:29:28.052Z,45.20
2023-02-11T18:31:56.726Z,38.30
2023-02-11T18:34:25.302Z,40.12
2023-02-11T18:36:52.898Z,40.67
2023-02-11T18:39:22.654Z,41.58
2023-02-11T18:41:51.963Z,40.73
2023-02-11T18:44:22.142Z,49.63
2023-02-11T18:46:51.333Z,39.38
2023-02-11T18:49:20.227Z,41.18
2023-02-11T18:51:47.759Z,41.02
2023-02-11T18:54:15.263Z,42.30
2023-02-11T18:56:43.035Z,44.33
2023-02-11T18:59:10.821Z,68.07
2023-02-11T19:01:41.693Z,79.55
2023-02-11T19:04:09.721Z,86.37
2023-02-11T19:06:38.563Z,88.87
2023-02-11T19:09:10.623Z,89.80
2023-02-11T19:11:53.621Z,88.37
2023-02-11T19:14:29.222Z,92.08
2023-02-11T19:16:59.762Z,102.05
2023-02-11T19:19:31.283Z,109.67
2023-02-11T19:22:01.133Z,106.92
2023-02-11T19:24:30.172Z,101.33
2023-02-11T19:27:00.912Z,72.97
2023-02-11T19:29:31.725Z,70.40
2023-02-11T19:31:59.488Z,63.98
2023-02-11T19:34:26.903Z,70.08
2023-02-11T19:36:56.225Z,62.48
2023-02-11T19:39:24.304Z,58.73
2023-02-11T19:41:52.737Z,56.50
2023-02-11T19:44:20.739Z,57.90
2023-02-11T19:46:49.731Z,56.30
2023-02-11T19:49:19.477Z,54.85
2023-02-11T19:51:49.237Z,60.28
2023-02-11T19:54:17.198Z,84.37
2023-02-11T19:56:45.447Z,96.90
2023-02-11T19:59:15.704Z,59.20
2023-02-11T20:01:45.262Z,62.10
2023-02-11T20:04:13.762Z,66.92
2023-02-11T20:06:41.481Z,91.05
2023-02-11T20:09:13.020Z,105.27
2023-02-11T20:11:42.053Z,102.82
2023-02-11T20:14:14.870Z,72.45
2023-02-11T20:16:49.198Z,54.75
2023-02-11T20:19:17.516Z,54.98
2023-02-11T20:21:47.968Z,50.98
2023-02-11T20:24:17.878Z,44.38
2023-02-11T20:26:47.759Z,46.05
2023-02-11T20:29:17.540Z,53.00
2023-02-11T20:31:45.522Z,49.60
2023-02-11T20:34:13.816Z,49.63
2023-02-11T20:36:41.460Z,47.00
2023-02-11T20:39:13.264Z,48.65
2023-02-11T20:41:41.027Z,49.77
2023-02-11T20:44:10.372Z,49.45
2023-02-11T20:46:41.458Z,47.13
2023-02-11T20:49:15.467Z,44.38
2023-02-11T20:51:43.725Z,45.38
2023-02-11T20:54:15.288Z,43.50
2023-02-11T20:56:46.781Z,45.08
2023-02-11T20:59:14.357Z,47.27
2023-02-11T21:01:48.646Z,40.17
2023-02-11T21:04:20.274Z,41.85
2023-02-11T21:06:51.859Z,41.98
2023-02-11T21:09:26.321Z,37.75
2023-02-11T21:11:54.964Z,37.63
2023-02-11T21:14:24.735Z,36.65
2023-02-11T21:16:53.000Z,39.58
2023-02-11T21:19:20.911Z,35.38
2023-02-11T21:21:48.737Z,37.33
2023-02-11T21:24:16.752Z,36.30
2023-02-11T21:26:44.521Z,41.00
2023-02-11T21:29:12.183Z,44.48
2023-02-11T21:31:40.178Z,42.43
2023-02-11T21:34:08.253Z,43.87
2023-02-11T21:36:36.199Z,44.33
2023-02-11T21:39:05.101Z,43.98
2023-02-11T21:41:35.095Z,43.92
2023-02-11T21:44:03.666Z,41.42
2023-02-11T21:46:31.187Z,42.58
2023-02-11T21:48:59.820Z,39.20
2023-02-11T21:51:28.213Z,42.13
2023-02-11T21:54:00.880Z,45.73
2023-02-11T21:56:31.439Z,44.77
2023-02-11T21:58:59.995Z,48.02
2023-02-11T22:01:32.266Z,45.80
2023-02-11T22:04:00.105Z,42.85
2023-02-11T22:06:31.387Z,48.68
2023-02-11T22:09:06.367Z,56.48
2023-02-11T22:11:34.805Z,59.90
2023-02-11T22:14:03.857Z,67.00
2023-02-11T22:16:31.837Z,75.32
2023-02-11T22:19:01.872Z,88.17
2023-02-11T22:21:29.863Z,86.22
2023-02-11T22:23:57.668Z,90.83
2023-02-11T22:26:27.474Z,75.12
2023-02-11T22:28:56.023Z,66.55
2023-02-11T22:31:28.345Z,55.15
2023-02-11T22:33:57.061Z,48.90
2023-02-11T22:36:29.123Z,48.17
2023-02-11T22:39:07.262Z,47.38
2023-02-11T22:41:35.274Z,48.48
2023-02-11T22:44:02.751Z,48.70
2023-02-11T22:46:30.581Z,47.38
2023-02-11T22:48:58.629Z,47.98
2023-02-11T22:51:29.089Z,46.60
2023-02-11T22:54:01.320Z,44.27
2023-02-11T22:56:31.348Z,46.75
2023-02-11T22:59:01.514Z,47.78
2023-02-11T23:01:31.156Z,46.42
2023-02-11T23:04:05.170Z,53.13
2023-02-11T23:06:33.251Z,52.48
2023-02-11T23:09:03.901Z,52.73
2023-02-11T23:11:32.546Z,56.18
2023-02-11T23:14:02.704Z,57.35
2023-02-11T23:16:34.178Z,51.50
2023-02-11T23:19:06.177Z,46.73
2023-02-11T23:21:37.745Z,41.28
2023-02-11T23:24:10.628Z,36.23
2023-02-11T23:26:41.210Z,36.88
2023-02-11T23:29:09.481Z,34.95
2023-02-11T23:31:42.814Z,36.38
2023-02-11T23:34:10.846Z,35.33
2023-02-11T23:36:38.569Z,48.87
2023-02-11T23:39:06.401Z,36.80
2023-02-11T23:41:34.311Z,32.78
2023-02-11T23:44:01.908Z,30.80
2023-02-11T23:46:29.514Z,32.85
2023-02-11T23:48:57.130Z,35.92
2023-02-11T23:51:24.914Z,38.02
2023-02-11T23:53:55.545Z,37.85
2023-02-11T23:56:26.729Z,45.05
2023-02-11T23:58:57.660Z,44.35
